Albion, Ohio
Current Conditions -  °F | °C
As of 3:52 AM on Sunday 23 Nov 2014 (Local Time) from KMFD Reporting Station
Light Rain Light Rain  
Wind Chill: 42°   Ceiling: 7500
Heat Index: 47°   Visibility: 10mi
Dew Point: 38°   Wind: 12mph
Humidity: 71%   Direction: 200°SSW
Pressure: 30.03"   Gusts: NA
Location:  40.9441°N, 82.1006°W
Report Text: KMFD 230852Z 20010KT 10SM -RA SCT037 OVC075 08/03 A3003 RMK AO2 RAB38 SLP175 P0000 60000 T00830033 50001
Loading
Personal Weather Stations






























Interactive Weather Map New forecast layout! Learn more

10-Day Weather Forecast

Advertisements
Track Severe Weather on mobile